sensor_id;sensor_type;location;lat;lon;timestamp;P1;durP1;ratioP1;P2;durP2;ratioP2
67564;SDS011;54393;53.556;49.216;2023-10-08T00:01:53;1.55;;;1.02;;
67564;SDS011;54393;53.556;49.216;2023-10-08T00:04:21;4.50;;;1.23;;
67564;SDS011;54393;53.556;49.216;2023-10-08T00:06:48;2.40;;;1.65;;
67564;SDS011;54393;53.556;49.216;2023-10-08T00:09:18;2.97;;;1.17;;
67564;SDS011;54393;53.556;49.216;2023-10-08T00:11:46;4.03;;;1.45;;
67564;SDS011;54393;53.556;49.216;2023-10-08T00:14:18;2.42;;;1.23;;
67564;SDS011;54393;53.556;49.216;2023-10-08T00:16:47;8.18;;;1.50;;
67564;SDS011;54393;53.556;49.216;2023-10-08T00:19:15;4.50;;;1.40;;
67564;SDS011;54393;53.556;49.216;2023-10-08T00:21:43;2.33;;;1.45;;
67564;SDS011;54393;53.556;49.216;2023-10-08T00:24:11;5.10;;;1.40;;
67564;SDS011;54393;53.556;49.216;2023-10-08T00:26:40;5.20;;;1.45;;
67564;SDS011;54393;53.556;49.216;2023-10-08T00:29:07;4.87;;;1.45;;
67564;SDS011;54393;53.556;49.216;2023-10-08T00:31:46;3.78;;;1.60;;
67564;SDS011;54393;53.556;49.216;2023-10-08T00:34:15;3.05;;;1.30;;
67564;SDS011;54393;53.556;49.216;2023-10-08T00:36:45;3.97;;;1.48;;
67564;SDS011;54393;53.556;49.216;2023-10-08T00:39:13;3.03;;;1.70;;
67564;SDS011;54393;53.556;49.216;2023-10-08T00:41:40;0.98;;;0.98;;
67564;SDS011;54393;53.556;49.216;2023-10-08T00:44:10;1.42;;;1.20;;
67564;SDS011;54393;53.556;49.216;2023-10-08T00:46:40;5.50;;;1.37;;
67564;SDS011;54393;53.556;49.216;2023-10-08T00:49:13;6.53;;;1.60;;
67564;SDS011;54393;53.556;49.216;2023-10-08T00:51:47;2.03;;;1.40;;
67564;SDS011;54393;53.556;49.216;2023-10-08T00:54:33;5.28;;;1.70;;
67564;SDS011;54393;53.556;49.216;2023-10-08T00:57:17;4.47;;;1.20;;
67564;SDS011;54393;53.556;49.216;2023-10-08T00:59:49;5.20;;;1.60;;
67564;SDS011;54393;53.556;49.216;2023-10-08T01:02:22;4.72;;;1.30;;
67564;SDS011;54393;53.556;49.216;2023-10-08T01:04:54;6.55;;;1.67;;
67564;SDS011;54393;53.556;49.216;2023-10-08T01:07:22;3.85;;;1.20;;
67564;SDS011;54393;53.556;49.216;2023-10-08T01:09:49;4.62;;;1.40;;
67564;SDS011;54393;53.556;49.216;2023-10-08T01:12:20;5.35;;;1.45;;
67564;SDS011;54393;53.556;49.216;2023-10-08T01:15:00;3.80;;;1.20;;
67564;SDS011;54393;53.556;49.216;2023-10-08T01:17:41;3.30;;;1.25;;
67564;SDS011;54393;53.556;49.216;2023-10-08T01:20:14;3.53;;;1.58;;
67564;SDS011;54393;53.556;49.216;2023-10-08T01:23:07;4.45;;;1.58;;
67564;SDS011;54393;53.556;49.216;2023-10-08T01:25:39;4.12;;;1.33;;
67564;SDS011;54393;53.556;49.216;2023-10-08T01:28:06;4.35;;;1.40;;
67564;SDS011;54393;53.556;49.216;2023-10-08T01:30:54;1.73;;;1.27;;
67564;SDS011;54393;53.556;49.216;2023-10-08T01:33:23;1.77;;;1.35;;
67564;SDS011;54393;53.556;49.216;2023-10-08T01:35:53;1.80;;;0.93;;
67564;SDS011;54393;53.556;49.216;2023-10-08T01:38:20;1.48;;;1.37;;
67564;SDS011;54393;53.556;49.216;2023-10-08T01:40:49;6.15;;;1.50;;
67564;SDS011;54393;53.556;49.216;2023-10-08T01:43:16;2.78;;;1.37;;
67564;SDS011;54393;53.556;49.216;2023-10-08T01:45:43;3.15;;;1.40;;
67564;SDS011;54393;53.556;49.216;2023-10-08T01:48:14;3.15;;;1.15;;
67564;SDS011;54393;53.556;49.216;2023-10-08T01:50:48;2.90;;;1.30;;
67564;SDS011;54393;53.556;49.216;2023-10-08T01:53:16;2.33;;;1.20;;
67564;SDS011;54393;53.556;49.216;2023-10-08T01:55:45;4.37;;;1.20;;
67564;SDS011;54393;53.556;49.216;2023-10-08T01:58:17;1.67;;;1.40;;
67564;SDS011;54393;53.556;49.216;2023-10-08T02:00:48;2.58;;;1.33;;
67564;SDS011;54393;53.556;49.216;2023-10-08T02:03:15;1.50;;;1.05;;
67564;SDS011;54393;53.556;49.216;2023-10-08T02:05:43;1.85;;;1.27;;
67564;SDS011;54393;53.556;49.216;2023-10-08T02:08:10;1.83;;;1.48;;
67564;SDS011;54393;53.556;49.216;2023-10-08T02:10:38;2.35;;;1.37;;
67564;SDS011;54393;53.556;49.216;2023-10-08T02:13:06;1.65;;;1.05;;
67564;SDS011;54393;53.556;49.216;2023-10-08T02:15:34;1.10;;;1.00;;
67564;SDS011;54393;53.556;49.216;2023-10-08T02:18:02;2.95;;;1.50;;
67564;SDS011;54393;53.556;49.216;2023-10-08T02:20:29;2.03;;;1.17;;
67564;SDS011;54393;53.556;49.216;2023-10-08T02:22:56;1.48;;;1.10;;
67564;SDS011;54393;53.556;49.216;2023-10-08T02:25:22;2.45;;;0.90;;
67564;SDS011;54393;53.556;49.216;2023-10-08T02:27:49;1.60;;;1.30;;
67564;SDS011;54393;53.556;49.216;2023-10-08T02:30:16;2.03;;;1.33;;
67564;SDS011;54393;53.556;49.216;2023-10-08T02:32:43;1.17;;;1.10;;
67564;SDS011;54393;53.556;49.216;2023-10-08T02:35:11;1.58;;;1.17;;
67564;SDS011;54393;53.556;49.216;2023-10-08T02:37:38;2.05;;;1.10;;
67564;SDS011;54393;53.556;49.216;2023-10-08T02:40:06;1.30;;;1.20;;
67564;SDS011;54393;53.556;49.216;2023-10-08T02:45:26;2.40;;;1.20;;
67564;SDS011;54393;53.556;49.216;2023-10-08T02:47:53;1.62;;;1.15;;
67564;SDS011;54393;53.556;49.216;2023-10-08T02:50:22;0.95;;;0.93;;
67564;SDS011;54393;53.556;49.216;2023-10-08T02:52:49;1.77;;;1.35;;
67564;SDS011;54393;53.556;49.216;2023-10-08T02:55:16;1.00;;;0.90;;
67564;SDS011;54393;53.556;49.216;2023-10-08T02:57:59;1.12;;;1.02;;
67564;SDS011;54393;53.556;49.216;2023-10-08T03:00:29;2.17;;;1.23;;
67564;SDS011;54393;53.556;49.216;2023-10-08T03:02:56;1.10;;;1.00;;
67564;SDS011;54393;53.556;49.216;2023-10-08T03:05:26;2.70;;;1.10;;
67564;SDS011;54393;53.556;49.216;2023-10-08T03:07:57;1.65;;;1.12;;
67564;SDS011;54393;53.556;49.216;2023-10-08T03:10:24;2.50;;;1.48;;
67564;SDS011;54393;53.556;49.216;2023-10-08T03:12:57;1.48;;;0.80;;
67564;SDS011;54393;53.556;49.216;2023-10-08T03:15:29;1.20;;;1.10;;
67564;SDS011;54393;53.556;49.216;2023-10-08T03:18:03;4.05;;;1.30;;
67564;SDS011;54393;53.556;49.216;2023-10-08T03:20:38;1.37;;;1.23;;
67564;SDS011;54393;53.556;49.216;2023-10-08T03:23:04;2.58;;;1.20;;
67564;SDS011;54393;53.556;49.216;2023-10-08T03:25:37;1.62;;;1.20;;
67564;SDS011;54393;53.556;49.216;2023-10-08T03:28:09;1.30;;;1.20;;
67564;SDS011;54393;53.556;49.216;2023-10-08T03:30:39;1.20;;;1.10;;
67564;SDS011;54393;53.556;49.216;2023-10-08T03:33:16;0.95;;;0.90;;
67564;SDS011;54393;53.556;49.216;2023-10-08T03:35:52;1.42;;;1.17;;
67564;SDS011;54393;53.556;49.216;2023-10-08T03:38:20;1.05;;;0.93;;
67564;SDS011;54393;53.556;49.216;2023-10-08T03:40:54;1.27;;;1.17;;
67564;SDS011;54393;53.556;49.216;2023-10-08T03:43:31;1.87;;;1.30;;
67564;SDS011;54393;53.556;49.216;2023-10-08T03:46:09;1.05;;;1.05;;
67564;SDS011;54393;53.556;49.216;2023-10-08T03:48:41;1.00;;;1.00;;
67564;SDS011;54393;53.556;49.216;2023-10-08T03:51:11;1.12;;;1.12;;
67564;SDS011;54393;53.556;49.216;2023-10-08T03:53:39;1.17;;;1.02;;
67564;SDS011;54393;53.556;49.216;2023-10-08T03:56:24;1.30;;;1.20;;
67564;SDS011;54393;53.556;49.216;2023-10-08T03:58:54;1.10;;;1.00;;
67564;SDS011;54393;53.556;49.216;2023-10-08T04:01:25;1.50;;;1.33;;
67564;SDS011;54393;53.556;49.216;2023-10-08T04:03:56;1.35;;;1.25;;
67564;SDS011;54393;53.556;49.216;2023-10-08T04:06:24;1.15;;;1.10;;
67564;SDS011;54393;53.556;49.216;2023-10-08T04:08:56;1.02;;;1.02;;
67564;SDS011;54393;53.556;49.216;2023-10-08T04:11:37;1.30;;;1.20;;
67564;SDS011;54393;53.556;49.216;2023-10-08T04:14:16;1.20;;;1.10;;
67564;SDS011;54393;53.556;49.216;2023-10-08T04:16:46;1.40;;;1.30;;
67564;SDS011;54393;53.556;49.216;2023-10-08T04:19:20;2.25;;;1.20;;
67564;SDS011;54393;53.556;49.216;2023-10-08T04:21:52;0.90;;;0.90;;
67564;SDS011;54393;53.556;49.216;2023-10-08T04:24:22;1.45;;;1.33;;
67564;SDS011;54393;53.556;49.216;2023-10-08T04:27:00;0.90;;;0.90;;
67564;SDS011;54393;53.556;49.216;2023-10-08T04:29:28;1.25;;;1.17;;
67564;SDS011;54393;53.556;49.216;2023-10-08T04:31:59;1.45;;;1.00;;
67564;SDS011;54393;53.556;49.216;2023-10-08T04:34:37;1.23;;;1.12;;
67564;SDS011;54393;53.556;49.216;2023-10-08T04:37:09;1.05;;;1.00;;
67564;SDS011;54393;53.556;49.216;2023-10-08T04:39:38;1.40;;;1.10;;
67564;SDS011;54393;53.556;49.216;2023-10-08T04:42:12;1.20;;;1.10;;
67564;SDS011;54393;53.556;49.216;2023-10-08T04:44:39;1.27;;;1.17;;
67564;SDS011;54393;53.556;49.216;2023-10-08T04:47:06;1.45;;;1.17;;
67564;SDS011;54393;53.556;49.216;2023-10-08T04:49:34;0.90;;;0.90;;
67564;SDS011;54393;53.556;49.216;2023-10-08T04:52:10;1.25;;;1.20;;
67564;SDS011;54393;53.556;49.216;2023-10-08T04:54:42;1.00;;;1.00;;
67564;SDS011;54393;53.556;49.216;2023-10-08T04:57:16;1.35;;;1.25;;
67564;SDS011;54393;53.556;49.216;2023-10-08T04:59:44;1.00;;;0.85;;
67564;SDS011;54393;53.556;49.216;2023-10-08T05:02:13;0.90;;;0.90;;
67564;SDS011;54393;53.556;49.216;2023-10-08T05:04:39;0.98;;;0.98;;
67564;SDS011;54393;53.556;49.216;2023-10-08T05:07:18;1.02;;;1.00;;
67564;SDS011;54393;53.556;49.216;2023-10-08T05:10:04;1.02;;;1.02;;
67564;SDS011;54393;53.556;49.216;2023-10-08T05:12:33;0.73;;;0.73;;
67564;SDS011;54393;53.556;49.216;2023-10-08T05:15:11;1.10;;;1.00;;
67564;SDS011;54393;53.556;49.216;2023-10-08T05:17:40;0.85;;;0.85;;
67564;SDS011;54393;53.556;49.216;2023-10-08T05:20:19;1.20;;;1.10;;
67564;SDS011;54393;53.556;49.216;2023-10-08T05:22:55;0.90;;;0.90;;
67564;SDS011;54393;53.556;49.216;2023-10-08T05:25:42;0.80;;;0.80;;
67564;SDS011;54393;53.556;49.216;2023-10-08T05:28:37;0.95;;;0.95;;
67564;SDS011;54393;53.556;49.216;2023-10-08T05:31:23;0.90;;;0.90;;
67564;SDS011;54393;53.556;49.216;2023-10-08T05:34:15;0.93;;;0.93;;
67564;SDS011;54393;53.556;49.216;2023-10-08T05:36:57;1.05;;;1.02;;
67564;SDS011;54393;53.556;49.216;2023-10-08T05:39:30;0.80;;;0.80;;
67564;SDS011;54393;53.556;49.216;2023-10-08T05:42:18;0.98;;;0.90;;
67564;SDS011;54393;53.556;49.216;2023-10-08T05:45:07;0.80;;;0.80;;
67564;SDS011;54393;53.556;49.216;2023-10-08T05:47:34;0.93;;;0.90;;
67564;SDS011;54393;53.556;49.216;2023-10-08T05:50:01;0.90;;;0.90;;
67564;SDS011;54393;53.556;49.216;2023-10-08T05:52:44;0.90;;;0.90;;
67564;SDS011;54393;53.556;49.216;2023-10-08T05:55:30;1.02;;;0.80;;
67564;SDS011;54393;53.556;49.216;2023-10-08T05:58:08;0.80;;;0.80;;
67564;SDS011;54393;53.556;49.216;2023-10-08T06:03:19;0.70;;;0.70;;
67564;SDS011;54393;53.556;49.216;2023-10-08T06:05:58;0.70;;;0.70;;
67564;SDS011;54393;53.556;49.216;2023-10-08T06:08:49;0.80;;;0.80;;
67564;SDS011;54393;53.556;49.216;2023-10-08T06:11:38;0.80;;;0.80;;
67564;SDS011;54393;53.556;49.216;2023-10-08T06:14:21;2.12;;;0.88;;
67564;SDS011;54393;53.556;49.216;2023-10-08T06:17:14;1.02;;;0.77;;
67564;SDS011;54393;53.556;49.216;2023-10-08T06:20:00;0.60;;;0.60;;
67564;SDS011;54393;53.556;49.216;2023-10-08T06:22:35;0.80;;;0.80;;
67564;SDS011;54393;53.556;49.216;2023-10-08T06:25:02;1.00;;;0.90;;
67564;SDS011;54393;53.556;49.216;2023-10-08T06:27:49;0.57;;;0.57;;
67564;SDS011;54393;53.556;49.216;2023-10-08T06:30:22;0.75;;;0.70;;
67564;SDS011;54393;53.556;49.216;2023-10-08T06:32:50;0.73;;;0.73;;
67564;SDS011;54393;53.556;49.216;2023-10-08T06:35:19;0.70;;;0.70;;
67564;SDS011;54393;53.556;49.216;2023-10-08T06:37:50;0.80;;;0.80;;
67564;SDS011;54393;53.556;49.216;2023-10-08T06:40:20;3.08;;;0.98;;
67564;SDS011;54393;53.556;49.216;2023-10-08T06:43:10;2.35;;;0.60;;
67564;SDS011;54393;53.556;49.216;2023-10-08T06:45:56;0.50;;;0.50;;
67564;SDS011;54393;53.556;49.216;2023-10-08T06:48:23;0.90;;;0.90;;
67564;SDS011;54393;53.556;49.216;2023-10-08T06:50:51;0.60;;;0.60;;
67564;SDS011;54393;53.556;49.216;2023-10-08T06:53:22;1.73;;;0.70;;
67564;SDS011;54393;53.556;49.216;2023-10-08T06:55:49;3.12;;;0.80;;
67564;SDS011;54393;53.556;49.216;2023-10-08T06:58:24;0.65;;;0.62;;
67564;SDS011;54393;53.556;49.216;2023-10-08T07:00:51;2.35;;;0.75;;
67564;SDS011;54393;53.556;49.216;2023-10-08T07:03:20;0.77;;;0.70;;
67564;SDS011;54393;53.556;49.216;2023-10-08T07:05:48;0.70;;;0.60;;
67564;SDS011;54393;53.556;49.216;2023-10-08T07:08:25;0.62;;;0.62;;
67564;SDS011;54393;53.556;49.216;2023-10-08T07:10:57;0.50;;;0.50;;
67564;SDS011;54393;53.556;49.216;2023-10-08T07:13:32;0.73;;;0.73;;
67564;SDS011;54393;53.556;49.216;2023-10-08T07:16:01;0.50;;;0.50;;
67564;SDS011;54393;53.556;49.216;2023-10-08T07:18:29;0.55;;;0.55;;
67564;SDS011;54393;53.556;49.216;2023-10-08T07:20:59;0.60;;;0.60;;
67564;SDS011;54393;53.556;49.216;2023-10-08T07:23:26;0.73;;;0.73;;
67564;SDS011;54393;53.556;49.216;2023-10-08T07:26:03;0.75;;;0.50;;
67564;SDS011;54393;53.556;49.216;2023-10-08T07:28:41;2.70;;;0.80;;
67564;SDS011;54393;53.556;49.216;2023-10-08T07:31:18;0.73;;;0.73;;
67564;SDS011;54393;53.556;49.216;2023-10-08T07:33:54;0.60;;;0.60;;
67564;SDS011;54393;53.556;49.216;2023-10-08T07:36:22;0.60;;;0.60;;
67564;SDS011;54393;53.556;49.216;2023-10-08T07:38:51;0.60;;;0.60;;
67564;SDS011;54393;53.556;49.216;2023-10-08T07:41:17;0.60;;;0.60;;
67564;SDS011;54393;53.556;49.216;2023-10-08T07:43:47;0.40;;;0.40;;
67564;SDS011;54393;53.556;49.216;2023-10-08T07:46:24;0.70;;;0.70;;
67564;SDS011;54393;53.556;49.216;2023-10-08T07:48:54;0.60;;;0.60;;
67564;SDS011;54393;53.556;49.216;2023-10-08T07:51:22;0.88;;;0.50;;
67564;SDS011;54393;53.556;49.216;2023-10-08T07:53:52;2.10;;;0.50;;
67564;SDS011;54393;53.556;49.216;2023-10-08T07:56:21;0.75;;;0.70;;
67564;SDS011;54393;53.556;49.216;2023-10-08T07:58:49;1.65;;;0.60;;
67564;SDS011;54393;53.556;49.216;2023-10-08T08:01:22;0.40;;;0.40;;
67564;SDS011;54393;53.556;49.216;2023-10-08T08:03:52;0.50;;;0.50;;
67564;SDS011;54393;53.556;49.216;2023-10-08T08:06:19;0.50;;;0.50;;
67564;SDS011;54393;53.556;49.216;2023-10-08T08:08:47;0.40;;;0.40;;
67564;SDS011;54393;53.556;49.216;2023-10-08T08:11:14;1.23;;;0.50;;
67564;SDS011;54393;53.556;49.216;2023-10-08T08:13:44;0.50;;;0.50;;
67564;SDS011;54393;53.556;49.216;2023-10-08T08:16:11;0.50;;;0.50;;
67564;SDS011;54393;53.556;49.216;2023-10-08T08:18:46;0.55;;;0.50;;
67564;SDS011;54393;53.556;49.216;2023-10-08T08:21:14;1.60;;;0.52;;
67564;SDS011;54393;53.556;49.216;2023-10-08T08:23:42;0.60;;;0.60;;
67564;SDS011;54393;53.556;49.216;2023-10-08T08:26:13;1.25;;;0.50;;
67564;SDS011;54393;53.556;49.216;2023-10-08T08:31:25;0.55;;;0.55;;
67564;SDS011;54393;53.556;49.216;2023-10-08T08:33:53;0.50;;;0.50;;
67564;SDS011;54393;53.556;49.216;2023-10-08T08:36:23;0.50;;;0.50;;
67564;SDS011;54393;53.556;49.216;2023-10-08T08:38:50;0.65;;;0.65;;
67564;SDS011;54393;53.556;49.216;2023-10-08T08:41:17;0.70;;;0.55;;
67564;SDS011;54393;53.556;49.216;2023-10-08T08:43:50;0.60;;;0.60;;
67564;SDS011;54393;53.556;49.216;2023-10-08T08:46:26;0.40;;;0.40;;
67564;SDS011;54393;53.556;49.216;2023-10-08T08:48:55;0.75;;;0.37;;
67564;SDS011;54393;53.556;49.216;2023-10-08T08:51:29;0.35;;;0.35;;
67564;SDS011;54393;53.556;49.216;2023-10-08T08:53:59;0.40;;;0.40;;
67564;SDS011;54393;53.556;49.216;2023-10-08T08:56:30;0.50;;;0.50;;
67564;SDS011;54393;53.556;49.216;2023-10-08T08:59:02;0.40;;;0.40;;
67564;SDS011;54393;53.556;49.216;2023-10-08T09:01:33;0.35;;;0.35;;
67564;SDS011;54393;53.556;49.216;2023-10-08T09:04:04;0.40;;;0.40;;
67564;SDS011;54393;53.556;49.216;2023-10-08T09:06:34;0.50;;;0.50;;
67564;SDS011;54393;53.556;49.216;2023-10-08T09:09:05;0.50;;;0.50;;
67564;SDS011;54393;53.556;49.216;2023-10-08T09:11:50;0.50;;;0.50;;
67564;SDS011;54393;53.556;49.216;2023-10-08T09:14:21;0.50;;;0.50;;
67564;SDS011;54393;53.556;49.216;2023-10-08T09:16:51;0.40;;;0.40;;
67564;SDS011;54393;53.556;49.216;2023-10-08T09:19:19;0.45;;;0.45;;
67564;SDS011;54393;53.556;49.216;2023-10-08T09:24:31;0.30;;;0.30;;
67564;SDS011;54393;53.556;49.216;2023-10-08T09:27:09;0.40;;;0.40;;
67564;SDS011;54393;53.556;49.216;2023-10-08T09:29:43;0.37;;;0.37;;
67564;SDS011;54393;53.556;49.216;2023-10-08T09:32:11;0.93;;;0.37;;
67564;SDS011;54393;53.556;49.216;2023-10-08T09:34:39;0.50;;;0.50;;
67564;SDS011;54393;53.556;49.216;2023-10-08T09:37:06;0.55;;;0.45;;
67564;SDS011;54393;53.556;49.216;2023-10-08T09:39:36;0.30;;;0.30;;
67564;SDS011;54393;53.556;49.216;2023-10-08T09:42:03;0.40;;;0.40;;
67564;SDS011;54393;53.556;49.216;2023-10-08T09:44:37;0.55;;;0.40;;
67564;SDS011;54393;53.556;49.216;2023-10-08T09:47:08;0.37;;;0.37;;
67564;SDS011;54393;53.556;49.216;2023-10-08T09:52:18;0.37;;;0.37;;
67564;SDS011;54393;53.556;49.216;2023-10-08T09:54:52;0.47;;;0.40;;
67564;SDS011;54393;53.556;49.216;2023-10-08T09:57:28;0.40;;;0.40;;
67564;SDS011;54393;53.556;49.216;2023-10-08T09:59:55;0.50;;;0.50;;
67564;SDS011;54393;53.556;49.216;2023-10-08T10:02:23;0.60;;;0.60;;
67564;SDS011;54393;53.556;49.216;2023-10-08T10:04:55;0.40;;;0.40;;
67564;SDS011;54393;53.556;49.216;2023-10-08T10:07:25;0.40;;;0.40;;
67564;SDS011;54393;53.556;49.216;2023-10-08T10:09:53;1.52;;;0.40;;
67564;SDS011;54393;53.556;49.216;2023-10-08T10:12:24;0.40;;;0.40;;
67564;SDS011;54393;53.556;49.216;2023-10-08T10:14:52;0.30;;;0.30;;
67564;SDS011;54393;53.556;49.216;2023-10-08T10:17:25;0.40;;;0.40;;
67564;SDS011;54393;53.556;49.216;2023-10-08T10:20:00;0.47;;;0.40;;
67564;SDS011;54393;53.556;49.216;2023-10-08T10:22:38;0.30;;;0.30;;
67564;SDS011;54393;53.556;49.216;2023-10-08T10:25:07;0.40;;;0.40;;
67564;SDS011;54393;53.556;49.216;2023-10-08T10:30:26;0.65;;;0.60;;
67564;SDS011;54393;53.556;49.216;2023-10-08T10:33:00;0.50;;;0.50;;
67564;SDS011;54393;53.556;49.216;2023-10-08T10:35:27;0.47;;;0.47;;
67564;SDS011;54393;53.556;49.216;2023-10-08T10:37:58;0.50;;;0.50;;
67564;SDS011;54393;53.556;49.216;2023-10-08T10:40:28;0.50;;;0.50;;
67564;SDS011;54393;53.556;49.216;2023-10-08T10:43:05;0.75;;;0.60;;
67564;SDS011;54393;53.556;49.216;2023-10-08T10:45:44;0.50;;;0.50;;
67564;SDS011;54393;53.556;49.216;2023-10-08T10:48:13;1.12;;;0.40;;
67564;SDS011;54393;53.556;49.216;2023-10-08T10:50:40;0.75;;;0.50;;
67564;SDS011;54393;53.556;49.216;2023-10-08T10:53:27;0.40;;;0.40;;
67564;SDS011;54393;53.556;49.216;2023-10-08T10:56:01;0.50;;;0.50;;
67564;SDS011;54393;53.556;49.216;2023-10-08T10:58:35;1.80;;;0.60;;
67564;SDS011;54393;53.556;49.216;2023-10-08T11:01:05;0.60;;;0.60;;
67564;SDS011;54393;53.556;49.216;2023-10-08T11:03:51;3.05;;;0.57;;
67564;SDS011;54393;53.556;49.216;2023-10-08T11:06:19;1.50;;;0.45;;
67564;SDS011;54393;53.556;49.216;2023-10-08T11:09:01;0.50;;;0.50;;
67564;SDS011;54393;53.556;49.216;2023-10-08T11:11:31;0.60;;;0.60;;
67564;SDS011;54393;53.556;49.216;2023-10-08T11:14:11;0.30;;;0.30;;
67564;SDS011;54393;53.556;49.216;2023-10-08T11:16:46;0.40;;;0.32;;
67564;SDS011;54393;53.556;49.216;2023-10-08T11:19:19;0.30;;;0.30;;
67564;SDS011;54393;53.556;49.216;2023-10-08T11:21:49;1.35;;;0.50;;
67564;SDS011;54393;53.556;49.216;2023-10-08T11:24:29;0.50;;;0.50;;
67564;SDS011;54393;53.556;49.216;2023-10-08T11:26:59;0.40;;;0.40;;
67564;SDS011;54393;53.556;49.216;2023-10-08T11:29:46;0.40;;;0.40;;
67564;SDS011;54393;53.556;49.216;2023-10-08T11:32:22;0.40;;;0.40;;
67564;SDS011;54393;53.556;49.216;2023-10-08T11:34:57;2.45;;;0.60;;
67564;SDS011;54393;53.556;49.216;2023-10-08T11:37:31;1.27;;;0.60;;
67564;SDS011;54393;53.556;49.216;2023-10-08T11:40:02;0.60;;;0.50;;
67564;SDS011;54393;53.556;49.216;2023-10-08T11:42:43;0.50;;;0.50;;
67564;SDS011;54393;53.556;49.216;2023-10-08T11:45:10;0.40;;;0.40;;
67564;SDS011;54393;53.556;49.216;2023-10-08T11:47:43;0.73;;;0.40;;
67564;SDS011;54393;53.556;49.216;2023-10-08T11:50:25;0.30;;;0.30;;
67564;SDS011;54393;53.556;49.216;2023-10-08T11:52:58;0.70;;;0.62;;
67564;SDS011;54393;53.556;49.216;2023-10-08T11:55:32;0.40;;;0.40;;
67564;SDS011;54393;53.556;49.216;2023-10-08T11:58:04;0.60;;;0.60;;
67564;SDS011;54393;53.556;49.216;2023-10-08T12:00:43;0.45;;;0.45;;
67564;SDS011;54393;53.556;49.216;2023-10-08T12:03:16;1.00;;;0.60;;
67564;SDS011;54393;53.556;49.216;2023-10-08T12:08:24;0.40;;;0.40;;
67564;SDS011;54393;53.556;49.216;2023-10-08T12:10:54;0.40;;;0.40;;
67564;SDS011;54393;53.556;49.216;2023-10-08T12:13:22;0.40;;;0.40;;
67564;SDS011;54393;53.556;49.216;2023-10-08T12:15:53;0.40;;;0.40;;
67564;SDS011;54393;53.556;49.216;2023-10-08T12:18:38;0.30;;;0.30;;
67564;SDS011;54393;53.556;49.216;2023-10-08T12:21:05;0.82;;;0.52;;
67564;SDS011;54393;53.556;49.216;2023-10-08T12:23:36;0.60;;;0.50;;
67564;SDS011;54393;53.556;49.216;2023-10-08T12:26:06;1.30;;;0.70;;
67564;SDS011;54393;53.556;49.216;2023-10-08T12:28:44;0.50;;;0.50;;
67564;SDS011;54393;53.556;49.216;2023-10-08T12:31:20;0.40;;;0.40;;
67564;SDS011;54393;53.556;49.216;2023-10-08T12:33:49;1.33;;;0.62;;
67564;SDS011;54393;53.556;49.216;2023-10-08T12:36:22;0.40;;;0.40;;
67564;SDS011;54393;53.556;49.216;2023-10-08T12:38:51;0.30;;;0.30;;
67564;SDS011;54393;53.556;49.216;2023-10-08T12:41:34;0.32;;;0.32;;
67564;SDS011;54393;53.556;49.216;2023-10-08T12:44:03;0.40;;;0.40;;
67564;SDS011;54393;53.556;49.216;2023-10-08T12:46:33;0.43;;;0.43;;
67564;SDS011;54393;53.556;49.216;2023-10-08T12:49:09;0.35;;;0.35;;
67564;SDS011;54393;53.556;49.216;2023-10-08T12:51:38;0.30;;;0.30;;
67564;SDS011;54393;53.556;49.216;2023-10-08T12:54:07;0.40;;;0.40;;
67564;SDS011;54393;53.556;49.216;2023-10-08T12:56:36;1.35;;;0.50;;
67564;SDS011;54393;53.556;49.216;2023-10-08T12:59:23;0.57;;;0.50;;
67564;SDS011;54393;53.556;49.216;2023-10-08T13:01:51;0.50;;;0.50;;
67564;SDS011;54393;53.556;49.216;2023-10-08T13:04:38;0.45;;;0.45;;
67564;SDS011;54393;53.556;49.216;2023-10-08T13:07:09;0.50;;;0.50;;
67564;SDS011;54393;53.556;49.216;2023-10-08T13:09:37;0.43;;;0.43;;
67564;SDS011;54393;53.556;49.216;2023-10-08T13:12:08;0.45;;;0.45;;
67564;SDS011;54393;53.556;49.216;2023-10-08T13:14:35;1.73;;;0.50;;
67564;SDS011;54393;53.556;49.216;2023-10-08T13:17:02;0.50;;;0.50;;
67564;SDS011;54393;53.556;49.216;2023-10-08T13:19:39;0.35;;;0.30;;
67564;SDS011;54393;53.556;49.216;2023-10-08T13:22:07;0.80;;;0.68;;
67564;SDS011;54393;53.556;49.216;2023-10-08T13:24:45;2.37;;;0.55;;
67564;SDS011;54393;53.556;49.216;2023-10-08T13:27:14;0.43;;;0.43;;
67564;SDS011;54393;53.556;49.216;2023-10-08T13:29:41;0.40;;;0.40;;
67564;SDS011;54393;53.556;49.216;2023-10-08T13:32:09;0.70;;;0.70;;
67564;SDS011;54393;53.556;49.216;2023-10-08T13:34:43;0.47;;;0.47;;
67564;SDS011;54393;53.556;49.216;2023-10-08T13:37:11;0.40;;;0.40;;
67564;SDS011;54393;53.556;49.216;2023-10-08T13:39:43;0.40;;;0.40;;
67564;SDS011;54393;53.556;49.216;2023-10-08T13:42:13;0.50;;;0.50;;
67564;SDS011;54393;53.556;49.216;2023-10-08T13:44:46;0.52;;;0.52;;
67564;SDS011;54393;53.556;49.216;2023-10-08T13:47:14;1.45;;;0.60;;
67564;SDS011;54393;53.556;49.216;2023-10-08T13:49:42;0.43;;;0.43;;
67564;SDS011;54393;53.556;49.216;2023-10-08T13:52:13;0.60;;;0.60;;
67564;SDS011;54393;53.556;49.216;2023-10-08T13:54:40;0.50;;;0.50;;
67564;SDS011;54393;53.556;49.216;2023-10-08T13:57:07;0.93;;;0.70;;
67564;SDS011;54393;53.556;49.216;2023-10-08T13:59:40;0.55;;;0.55;;
67564;SDS011;54393;53.556;49.216;2023-10-08T14:02:08;0.60;;;0.60;;
67564;SDS011;54393;53.556;49.216;2023-10-08T14:04:47;0.50;;;0.50;;
67564;SDS011;54393;53.556;49.216;2023-10-08T14:07:18;0.65;;;0.65;;
67564;SDS011;54393;53.556;49.216;2023-10-08T14:09:54;0.60;;;0.60;;
67564;SDS011;54393;53.556;49.216;2023-10-08T14:12:23;0.60;;;0.60;;
67564;SDS011;54393;53.556;49.216;2023-10-08T14:14:53;0.75;;;0.75;;
67564;SDS011;54393;53.556;49.216;2023-10-08T14:17:20;0.55;;;0.40;;
67564;SDS011;54393;53.556;49.216;2023-10-08T14:20:06;0.60;;;0.60;;
67564;SDS011;54393;53.556;49.216;2023-10-08T14:22:41;0.65;;;0.60;;
67564;SDS011;54393;53.556;49.216;2023-10-08T14:25:14;1.25;;;0.47;;
67564;SDS011;54393;53.556;49.216;2023-10-08T14:27:50;0.80;;;0.80;;
67564;SDS011;54393;53.556;49.216;2023-10-08T14:30:20;0.40;;;0.40;;
67564;SDS011;54393;53.556;49.216;2023-10-08T14:32:50;0.57;;;0.50;;
67564;SDS011;54393;53.556;49.216;2023-10-08T14:35:22;0.57;;;0.57;;
67564;SDS011;54393;53.556;49.216;2023-10-08T14:38:07;0.60;;;0.60;;
67564;SDS011;54393;53.556;49.216;2023-10-08T14:40:55;0.60;;;0.57;;
67564;SDS011;54393;53.556;49.216;2023-10-08T14:43:43;0.68;;;0.68;;
67564;SDS011;54393;53.556;49.216;2023-10-08T14:46:10;0.40;;;0.40;;
67564;SDS011;54393;53.556;49.216;2023-10-08T14:48:40;0.50;;;0.50;;
67564;SDS011;54393;53.556;49.216;2023-10-08T14:51:07;0.60;;;0.60;;
67564;SDS011;54393;53.556;49.216;2023-10-08T14:53:44;0.95;;;0.50;;
67564;SDS011;54393;53.556;49.216;2023-10-08T14:56:13;1.02;;;1.00;;
67564;SDS011;54393;53.556;49.216;2023-10-08T14:59:01;0.62;;;0.62;;
67564;SDS011;54393;53.556;49.216;2023-10-08T15:01:28;0.60;;;0.60;;
67564;SDS011;54393;53.556;49.216;2023-10-08T15:04:01;0.77;;;0.60;;
67564;SDS011;54393;53.556;49.216;2023-10-08T15:06:34;0.88;;;0.80;;
67564;SDS011;54393;53.556;49.216;2023-10-08T15:09:11;1.20;;;0.73;;
67564;SDS011;54393;53.556;49.216;2023-10-08T15:11:53;0.55;;;0.55;;
67564;SDS011;54393;53.556;49.216;2023-10-08T15:14:23;0.60;;;0.60;;
67564;SDS011;54393;53.556;49.216;2023-10-08T15:16:53;0.60;;;0.60;;
67564;SDS011;54393;53.556;49.216;2023-10-08T15:19:22;0.65;;;0.65;;
67564;SDS011;54393;53.556;49.216;2023-10-08T15:21:51;0.90;;;0.90;;
67564;SDS011;54393;53.556;49.216;2023-10-08T15:24:21;0.60;;;0.50;;